Time;durP1;ratioP1;P1;durP2;ratioP2;P2;SDS_P1;SDS_P2;PMS_P1;PMS_P2;Temp;Humidity;BMP_temperature;BMP_pressure;BME280_temperature;BME280_humidity;BME280_pressure;Samples;Min_cycle;Max_cycle;Signal;HPM_P1;HPM_P2
2022/06/06 00:01:41;;;;;;;26.10;10.17;;;;;;;;;;5074102;28;20446;-76
2022/06/06 00:04:08;;;;;;;28.70;9.60;;;;;;;;;;5074066;28;20817;-75
2022/06/06 00:06:36;;;;;;;21.07;8.70;;;;;;;;;;5074292;28;20443;-75
2022/06/06 00:09:03;;;;;;;24.93;9.90;;;;;;;;;;5074232;28;20809;-75
2022/06/06 00:11:33;;;;;;;24.17;9.70;;;;;;;;;;5073679;28;20830;-75
2022/06/06 00:14:01;;;;;;;22.77;9.40;;;;;;;;;;5074134;28;20463;-75
2022/06/06 00:16:29;;;;;;;23.80;9.10;;;;;;;;;;5074081;28;20451;-75
2022/06/06 00:18:57;;;;;;;25.70;9.50;;;;;;;;;;5073991;28;20447;-75
2022/06/06 00:21:25;;;;;;;26.83;11.07;;;;;;;;;;5073724;28;20960;-75
2022/06/06 00:23:59;;;;;;;26.37;9.67;;;;;;;;;;5073328;28;20474;-75
2022/06/06 00:26:27;;;;;;;24.70;9.63;;;;;;;;;;5073730;28;20447;-75
2022/06/06 00:28:55;;;;;;;25.90;10.30;;;;;;;;;;5073722;28;20526;-75
2022/06/06 00:36:56;;;;;;;24.47;10.00;;;;;;;;;;5073732;28;20530;-75
2022/06/06 00:39:23;;;;;;;24.27;9.80;;;;;;;;;;5073733;28;20439;-75
2022/06/06 00:41:52;;;;;;;27.40;10.70;;;;;;;;;;5073212;28;20454;-75
2022/06/06 00:44:21;;;;;;;24.10;10.13;;;;;;;;;;5073381;28;20964;-75
2022/06/06 00:46:52;;;;;;;29.00;11.10;;;;;;;;;;5073179;28;20800;-76
2022/06/06 00:49:24;;;;;;;26.97;10.90;;;;;;;;;;5073323;28;20435;-75
2022/06/06 00:51:52;;;;;;;26.13;10.13;;;;;;;;;;5072973;28;20451;-75
2022/06/06 00:54:20;;;;;;;25.20;9.80;;;;;;;;;;5073044;28;20458;-75
2022/06/06 00:56:49;;;;;;;23.60;11.07;;;;;;;;;;5073146;28;20952;-75
2022/06/06 00:59:19;;;;;;;30.30;11.07;;;;;;;;;;5072963;28;20438;-75
2022/06/06 01:01:48;;;;;;;26.33;10.70;;;;;;;;;;5072768;28;21195;-75
2022/06/06 01:04:17;;;;;;;25.67;11.23;;;;;;;;;;5072885;28;20435;-75
2022/06/06 01:06:46;;;;;;;24.00;11.20;;;;;;;;;;5073383;28;20443;-75
2022/06/06 01:09:14;;;;;;;29.43;10.90;;;;;;;;;;5072881;28;20497;-75
2022/06/06 01:11:42;;;;;;;25.07;10.40;;;;;;;;;;5072634;28;20432;-75
2022/06/06 01:14:12;;;;;;;27.07;11.60;;;;;;;;;;5072634;28;20455;-75
2022/06/06 01:16:42;;;;;;;28.20;11.73;;;;;;;;;;5072567;28;20479;-75
2022/06/06 01:19:30;;;;;;;23.97;10.20;;;;;;;;;;5072735;28;20450;-75
2022/06/06 01:22:11;;;;;;;25.53;11.23;;;;;;;;;;5061778;28;20461;-75
2022/06/06 01:24:46;;;;;;;27.17;11.07;;;;;;;;;;5072624;28;20473;-76
2022/06/06 01:27:21;;;;;;;23.10;10.20;;;;;;;;;;5072475;28;20435;-76
2022/06/06 01:29:53;;;;;;;21.67;9.90;;;;;;;;;;5072289;28;21024;-75
2022/06/06 01:32:22;;;;;;;27.80;10.90;;;;;;;;;;5072726;28;20420;-75
2022/06/06 01:34:51;;;;;;;25.50;10.23;;;;;;;;;;5072266;28;20513;-75
2022/06/06 01:37:26;;;;;;;24.47;10.27;;;;;;;;;;5072739;28;20830;-75
2022/06/06 01:39:54;;;;;;;24.33;10.40;;;;;;;;;;5072380;28;20446;-75
2022/06/06 01:42:24;;;;;;;27.37;10.40;;;;;;;;;;5072248;28;20435;-75
2022/06/06 01:44:54;;;;;;;23.23;9.90;;;;;;;;;;5072188;28;20450;-75
2022/06/06 01:47:26;;;;;;;30.10;12.63;;;;;;;;;;5072234;28;20435;-75
2022/06/06 01:49:55;;;;;;;25.10;10.87;;;;;;;;;;5072175;28;20439;-75
2022/06/06 01:52:22;;;;;;;24.43;10.67;;;;;;;;;;5072038;28;20439;-75
2022/06/06 01:54:49;;;;;;;29.43;12.00;;;;;;;;;;5071954;28;20447;-75
2022/06/06 01:57:17;;;;;;;28.97;10.33;;;;;;;;;;5072055;28;20439;-75
2022/06/06 01:59:46;;;;;;;31.20;11.43;;;;;;;;;;5071605;28;20971;-75
2022/06/06 02:02:15;;;;;;;27.73;10.93;;;;;;;;;;5071962;28;20948;-75
2022/06/06 02:04:43;;;;;;;31.30;11.53;;;;;;;;;;5072471;28;20489;-75
2022/06/06 02:07:10;;;;;;;22.53;9.83;;;;;;;;;;5071958;28;20453;-76
2022/06/06 02:09:38;;;;;;;27.13;11.00;;;;;;;;;;5071535;28;20446;-75
2022/06/06 02:12:05;;;;;;;24.67;10.20;;;;;;;;;;5071735;28;20439;-75
2022/06/06 02:14:33;;;;;;;24.93;10.90;;;;;;;;;;5072051;28;20467;-75
2022/06/06 02:17:00;;;;;;;23.10;9.50;;;;;;;;;;5071615;28;20486;-75
2022/06/06 02:19:29;;;;;;;34.60;10.93;;;;;;;;;;5071717;28;20439;-75
2022/06/06 02:21:56;;;;;;;26.07;11.43;;;;;;;;;;5071647;28;20447;-75
2022/06/06 02:24:24;;;;;;;24.27;10.70;;;;;;;;;;5071937;28;20494;-76
2022/06/06 02:26:51;;;;;;;25.40;11.17;;;;;;;;;;5071534;28;20833;-75
2022/06/06 02:29:19;;;;;;;22.90;9.83;;;;;;;;;;5071843;28;20462;-76
2022/06/06 02:31:46;;;;;;;30.27;10.37;;;;;;;;;;5071390;28;20447;-76
2022/06/06 02:34:14;;;;;;;29.37;11.97;;;;;;;;;;5071617;28;20449;-76
2022/06/06 02:36:43;;;;;;;25.60;11.37;;;;;;;;;;5071566;28;20478;-76
2022/06/06 02:39:10;;;;;;;27.30;11.20;;;;;;;;;;5071485;28;20455;-75
2022/06/06 02:41:37;;;;;;;30.97;10.23;;;;;;;;;;5071295;28;20915;-76
2022/06/06 02:44:05;;;;;;;25.93;10.37;;;;;;;;;;5071794;28;20849;-76
2022/06/06 02:46:33;;;;;;;27.07;11.10;;;;;;;;;;5071622;28;20450;-76
2022/06/06 02:49:00;;;;;;;27.27;11.77;;;;;;;;;;5071747;28;20940;-75
2022/06/06 03:30:10;;;;;;;10.70;1.23;;;;;;;;;;5150541;27;20546;-71
2022/06/06 04:57:45;;;;;;;22.20;6.17;;;;;;;;;;5129083;27;20629;-72
2022/06/06 05:00:14;;;;;;;16.10;4.90;;;;;;;;;;5130159;27;20429;-72
2022/06/06 05:02:42;;;;;;;15.57;5.03;;;;;;;;;;5130003;27;20867;-71
2022/06/06 05:05:09;;;;;;;15.73;4.97;;;;;;;;;;5129404;27;20433;-72
2022/06/06 05:07:54;;;;;;;15.03;5.00;;;;;;;;;;5130113;27;20440;-72
2022/06/06 05:10:26;;;;;;;15.03;4.90;;;;;;;;;;5128400;27;21029;-72
2022/06/06 05:13:06;;;;;;;15.00;4.83;;;;;;;;;;5127602;27;20441;-72
2022/06/06 05:15:38;;;;;;;16.40;5.00;;;;;;;;;;5127481;27;20444;-73
2022/06/06 05:18:14;;;;;;;13.00;4.40;;;;;;;;;;5127667;27;20468;-72
2022/06/06 05:20:59;;;;;;;17.60;6.10;;;;;;;;;;5127780;27;20432;-72
2022/06/06 05:23:47;;;;;;;15.10;5.00;;;;;;;;;;5127067;27;20934;-72
2022/06/06 05:26:28;;;;;;;14.67;4.80;;;;;;;;;;5129459;27;20508;-72
2022/06/06 05:29:07;;;;;;;13.90;4.47;;;;;;;;;;5129541;27;20437;-72
2022/06/06 05:31:45;;;;;;;13.47;4.27;;;;;;;;;;5129455;27;20472;-73
2022/06/06 05:34:16;;;;;;;14.53;4.87;;;;;;;;;;5129335;27;20434;-72
2022/06/06 05:36:50;;;;;;;13.27;4.30;;;;;;;;;;5129441;27;20470;-72
2022/06/06 05:39:32;;;;;;;15.77;4.63;;;;;;;;;;5129414;27;20490;-72
2022/06/06 05:42:10;;;;;;;12.90;3.70;;;;;;;;;;5129435;27;20449;-72
2022/06/06 05:44:46;;;;;;;13.23;3.90;;;;;;;;;;5129211;27;20461;-73
2022/06/06 05:47:17;;;;;;;14.23;4.37;;;;;;;;;;5129099;27;20572;-72
2022/06/06 05:49:51;;;;;;;16.87;3.50;;;;;;;;;;5129309;27;21014;-72
2022/06/06 05:52:27;;;;;;;13.97;3.90;;;;;;;;;;5129146;27;20436;-72
2022/06/06 05:55:03;;;;;;;13.50;3.50;;;;;;;;;;5128767;28;20440;-72
2022/06/06 05:57:40;;;;;;;15.27;3.80;;;;;;;;;;5121880;27;20496;-72
2022/06/06 06:00:21;;;;;;;13.40;3.33;;;;;;;;;;5115853;28;20437;-75
2022/06/06 06:03:10;;;;;;;12.00;3.23;;;;;;;;;;5115154;28;20445;-72
2022/06/06 06:05:44;;;;;;;14.50;4.13;;;;;;;;;;5115026;28;21313;-72
2022/06/06 06:08:17;;;;;;;14.60;3.97;;;;;;;;;;5115284;28;20437;-72
2022/06/06 06:10:49;;;;;;;20.30;4.10;;;;;;;;;;5115431;28;20459;-72
2022/06/06 06:13:26;;;;;;;13.97;4.17;;;;;;;;;;5114712;28;20495;-73
2022/06/06 06:15:59;;;;;;;13.63;3.80;;;;;;;;;;5114909;28;20437;-72
2022/06/06 06:18:29;;;;;;;15.90;5.20;;;;;;;;;;5115070;28;20473;-72
2022/06/06 06:21:01;;;;;;;15.47;4.10;;;;;;;;;;5114961;28;20551;-73
2022/06/06 06:23:30;;;;;;;14.13;3.70;;;;;;;;;;5114450;28;20498;-73
2022/06/06 06:25:59;;;;;;;13.57;3.57;;;;;;;;;;5114774;28;20512;-73
2022/06/06 06:28:28;;;;;;;13.43;3.80;;;;;;;;;;5114670;28;20438;-72
2022/06/06 06:31:03;;;;;;;13.67;3.80;;;;;;;;;;5114781;28;20493;-73
2022/06/06 06:33:36;;;;;;;14.57;4.43;;;;;;;;;;5114513;28;20441;-74
2022/06/06 06:36:07;;;;;;;14.97;4.93;;;;;;;;;;5114497;28;20440;-72
2022/06/06 06:38:42;;;;;;;14.80;4.13;;;;;;;;;;5114441;28;20507;-73
2022/06/06 06:41:15;;;;;;;15.00;3.60;;;;;;;;;;5114511;28;20449;-73
2022/06/06 06:43:49;;;;;;;14.63;4.10;;;;;;;;;;5114721;27;20480;-73
2022/06/06 06:46:21;;;;;;;16.17;4.00;;;;;;;;;;5114180;28;20519;-73
2022/06/06 06:48:52;;;;;;;13.97;4.30;;;;;;;;;;5114455;28;20946;-73
2022/06/06 06:51:24;;;;;;;15.30;4.67;;;;;;;;;;5113939;28;20984;-73
2022/06/06 06:54:03;;;;;;;15.13;4.30;;;;;;;;;;5114579;28;20442;-73
2022/06/06 06:56:36;;;;;;;13.30;4.50;;;;;;;;;;5114261;28;20523;-73
2022/06/06 06:59:08;;;;;;;16.30;4.40;;;;;;;;;;5114184;28;20934;-74
2022/06/06 07:01:41;;;;;;;15.60;4.90;;;;;;;;;;5113977;28;20450;-74
2022/06/06 07:09:57;;;;;;;13.67;4.20;;;;;;;;;;5112872;28;20482;-73
2022/06/06 07:12:32;;;;;;;13.90;4.30;;;;;;;;;;5113826;28;20437;-73
2022/06/06 07:15:18;;;;;;;12.90;3.47;;;;;;;;;;5113885;28;20471;-73
2022/06/06 07:17:49;;;;;;;15.20;4.17;;;;;;;;;;5113797;28;20437;-73
2022/06/06 07:20:18;;;;;;;14.87;3.90;;;;;;;;;;5113717;27;20485;-74
2022/06/06 07:23:02;;;;;;;20.30;4.40;;;;;;;;;;5113569;28;20934;-72
2022/06/06 07:25:31;;;;;;;13.97;3.57;;;;;;;;;;5113419;28;20438;-73
2022/06/06 07:27:59;;;;;;;15.40;3.90;;;;;;;;;;5113474;28;20452;-73
2022/06/06 07:30:30;;;;;;;15.90;4.30;;;;;;;;;;5113570;28;20896;-73
2022/06/06 07:33:05;;;;;;;14.97;3.87;;;;;;;;;;5113416;28;20534;-73
2022/06/06 07:35:37;;;;;;;12.77;3.13;;;;;;;;;;5113802;28;20439;-73
2022/06/06 07:38:09;;;;;;;14.30;4.40;;;;;;;;;;5113535;28;20468;-73
2022/06/06 07:40:44;;;;;;;14.70;4.13;;;;;;;;;;5113601;28;20497;-73
2022/06/06 07:43:21;;;;;;;17.10;4.47;;;;;;;;;;5112964;28;20943;-73
2022/06/06 07:45:50;;;;;;;15.10;4.17;;;;;;;;;;5112981;28;20512;-73
2022/06/06 07:48:31;;;;;;;16.07;4.70;;;;;;;;;;5113070;28;20443;-73
2022/06/06 07:51:03;;;;;;;16.73;5.30;;;;;;;;;;5113236;28;20468;-73
2022/06/06 08:34:33;;;;;;;13.20;2.93;;;;;;;;;;5109539;27;21040;-71
2022/06/06 08:37:27;;;;;;;14.70;3.30;;;;;;;;;;5109733;28;20470;-74
2022/06/06 08:40:01;;;;;;;14.57;2.97;;;;;;;;;;5085004;28;20967;-74
2022/06/06 08:42:35;;;;;;;14.10;3.93;;;;;;;;;;5109122;28;20480;-74
2022/06/06 08:45:11;;;;;;;14.80;3.97;;;;;;;;;;5109497;28;21007;-75
2022/06/06 08:47:50;;;;;;;13.80;3.63;;;;;;;;;;5109433;28;20454;-74
2022/06/06 08:50:46;;;;;;;15.97;4.47;;;;;;;;;;5109332;28;20442;-75
2022/06/06 08:53:34;;;;;;;14.63;3.97;;;;;;;;;;5109280;28;20451;-75
2022/06/06 08:56:24;;;;;;;18.63;4.13;;;;;;;;;;5091530;28;20965;-75
2022/06/06 08:59:12;;;;;;;14.47;4.00;;;;;;;;;;5109192;28;20477;-75
2022/06/06 09:01:51;;;;;;;13.97;3.57;;;;;;;;;;5109712;28;20434;-74
2022/06/06 09:04:31;;;;;;;13.53;2.87;;;;;;;;;;5109055;28;20524;-74
2022/06/06 09:07:17;;;;;;;12.80;2.83;;;;;;;;;;5109066;28;20937;-74
2022/06/06 09:10:00;;;;;;;13.43;3.40;;;;;;;;;;5101926;28;20445;-75
2022/06/06 09:12:45;;;;;;;14.17;3.47;;;;;;;;;;5108796;28;20452;-74
2022/06/06 09:15:34;;;;;;;13.53;3.30;;;;;;;;;;5108829;28;20445;-75
2022/06/06 09:18:15;;;;;;;16.40;5.90;;;;;;;;;;5109162;28;20470;-74
2022/06/06 09:20:51;;;;;;;15.13;2.80;;;;;;;;;;5109309;28;20428;-73
2022/06/06 09:23:42;;;;;;;17.63;3.13;;;;;;;;;;5108592;28;20489;-73
2022/06/06 09:26:16;;;;;;;14.20;3.10;;;;;;;;;;5109059;28;20443;-74
2022/06/06 09:29:14;;;;;;;14.20;3.47;;;;;;;;;;5108626;28;20435;-73
2022/06/06 09:31:57;;;;;;;13.30;2.53;;;;;;;;;;5045699;28;20444;-74
2022/06/06 09:34:43;;;;;;;13.00;3.00;;;;;;;;;;5092591;28;20473;-73
2022/06/06 09:37:17;;;;;;;14.07;2.80;;;;;;;;;;5095242;28;20442;-73
2022/06/06 09:39:55;;;;;;;12.63;2.60;;;;;;;;;;5095152;28;20434;-74
2022/06/06 09:42:35;;;;;;;13.00;2.83;;;;;;;;;;5094456;28;20567;-74
2022/06/06 09:45:29;;;;;;;13.73;2.97;;;;;;;;;;5094682;28;20441;-74
2022/06/06 09:48:08;;;;;;;13.50;3.10;;;;;;;;;;5094867;28;20432;-74
2022/06/06 09:50:54;;;;;;;12.77;2.70;;;;;;;;;;5094269;28;20970;-74
2022/06/06 09:53:42;;;;;;;14.17;2.67;;;;;;;;;;5094837;28;20447;-74
2022/06/06 09:59:25;;;;;;;12.40;2.70;;;;;;;;;;5094585;28;20437;-74
2022/06/06 10:02:11;;;;;;;13.30;3.33;;;;;;;;;;5094872;28;20469;-74
2022/06/06 10:05:01;;;;;;;13.50;3.20;;;;;;;;;;5094382;28;20813;-74
2022/06/06 10:07:45;;;;;;;17.03;3.30;;;;;;;;;;5094744;28;20437;-74
2022/06/06 10:10:30;;;;;;;13.53;3.13;;;;;;;;;;5094271;28;20439;-74
2022/06/06 10:13:13;;;;;;;18.40;3.10;;;;;;;;;;5094309;28;20982;-74
2022/06/06 10:15:50;;;;;;;13.60;3.10;;;;;;;;;;5094144;28;20953;-74
2022/06/06 10:18:33;;;;;;;15.57;3.63;;;;;;;;;;5094120;28;20439;-74
2022/06/06 10:21:17;;;;;;;12.17;2.30;;;;;;;;;;5094144;28;20442;-74
2022/06/06 10:24:01;;;;;;;12.30;2.67;;;;;;;;;;5093850;28;20505;-75
2022/06/06 10:26:35;;;;;;;14.23;2.70;;;;;;;;;;5094025;28;20438;-74
2022/06/06 10:29:18;;;;;;;12.07;2.27;;;;;;;;;;5093924;28;20523;-74
2022/06/06 10:32:00;;;;;;;13.60;2.63;;;;;;;;;;5091906;28;20464;-75
2022/06/06 10:34:48;;;;;;;13.97;2.70;;;;;;;;;;5094046;28;20469;-74
2022/06/06 10:37:36;;;;;;;12.90;2.33;;;;;;;;;;5093745;28;20439;-74
2022/06/06 10:40:22;;;;;;;12.60;2.23;;;;;;;;;;5093838;28;20442;-74
2022/06/06 10:43:04;;;;;;;13.10;2.27;;;;;;;;;;5093491;28;20485;-74
2022/06/06 10:45:33;;;;;;;12.70;2.37;;;;;;;;;;5090657;28;20452;-74
2022/06/06 10:48:11;;;;;;;12.20;2.13;;;;;;;;;;5093798;28;20947;-74
2022/06/06 10:51:36;;;;;;;12.70;2.20;;;;;;;;;;5093847;28;20439;-75
2022/06/06 10:53:45;;;;;;;16.67;2.47;;;;;;;;;;5093530;28;20968;-74
2022/06/06 10:56:20;;;;;;;12.50;2.30;;;;;;;;;;5093144;28;20444;-75
2022/06/06 10:59:04;;;;;;;14.20;2.47;;;;;;;;;;5093423;28;20963;-74
2022/06/06 11:01:43;;;;;;;13.33;2.53;;;;;;;;;;5093628;28;20790;-74
2022/06/06 11:04:28;;;;;;;13.17;2.47;;;;;;;;;;5093138;28;20478;-74
2022/06/06 11:07:20;;;;;;;13.10;2.80;;;;;;;;;;5093012;28;20440;-74
2022/06/06 11:10:02;;;;;;;15.57;2.37;;;;;;;;;;5093191;28;20430;-74
2022/06/06 11:12:44;;;;;;;15.03;2.97;;;;;;;;;;5090879;28;20449;-75
2022/06/06 11:15:13;;;;;;;13.37;2.67;;;;;;;;;;5090861;28;20454;-74
2022/06/06 11:17:52;;;;;;;13.10;2.20;;;;;;;;;;5093010;28;20457;-74
2022/06/06 11:20:50;;;;;;;12.40;2.53;;;;;;;;;;5092690;28;20434;-74
2022/06/06 11:23:21;;;;;;;12.80;2.27;;;;;;;;;;5092680;28;20480;-74
2022/06/06 11:25:54;;;;;;;13.80;2.50;;;;;;;;;;5093071;28;20444;-75
2022/06/06 11:28:33;;;;;;;12.60;2.80;;;;;;;;;;5092463;28;20438;-75
2022/06/06 11:31:17;;;;;;;14.70;2.50;;;;;;;;;;5092742;28;20481;-74
2022/06/06 11:33:55;;;;;;;12.17;2.10;;;;;;;;;;5092752;28;21010;-75
2022/06/06 11:36:40;;;;;;;13.13;2.40;;;;;;;;;;5092446;28;20442;-74
2022/06/06 11:39:21;;;;;;;12.40;2.00;;;;;;;;;;5062551;28;20440;-75
2022/06/06 11:42:06;;;;;;;13.73;2.77;;;;;;;;;;5092683;28;20824;-74
2022/06/06 11:44:48;;;;;;;13.20;2.93;;;;;;;;;;5092255;28;20531;-74
2022/06/06 11:47:38;;;;;;;14.10;2.50;;;;;;;;;;5092363;28;20444;-74
2022/06/06 11:50:24;;;;;;;13.17;2.13;;;;;;;;;;5092510;28;20934;-74
2022/06/06 11:53:12;;;;;;;12.47;2.40;;;;;;;;;;5092342;28;20974;-74
2022/06/06 11:55:42;;;;;;;12.70;2.13;;;;;;;;;;5092247;28;20468;-75
2022/06/06 11:58:27;;;;;;;13.60;2.63;;;;;;;;;;5092027;28;20440;-74
2022/06/06 12:01:03;;;;;;;13.87;2.23;;;;;;;;;;5092730;28;20444;-74
2022/06/06 12:03:56;;;;;;;12.40;2.30;;;;;;;;;;5092175;28;20515;-74
2022/06/06 12:06:47;;;;;;;12.87;2.20;;;;;;;;;;5092017;28;20434;-75
2022/06/06 12:09:21;;;;;;;13.27;2.40;;;;;;;;;;5092191;28;20446;-74
2022/06/06 12:11:56;;;;;;;12.57;2.37;;;;;;;;;;5092270;28;20436;-74
2022/06/06 12:14:38;;;;;;;12.93;2.50;;;;;;;;;;5091782;28;20947;-74
2022/06/06 12:17:10;;;;;;;12.50;2.30;;;;;;;;;;5092045;28;20444;-74
2022/06/06 12:19:58;;;;;;;13.60;2.30;;;;;;;;;;5092020;28;20439;-74
2022/06/06 12:22:45;;;;;;;13.27;2.50;;;;;;;;;;5091395;28;20468;-74
2022/06/06 12:25:23;;;;;;;12.23;2.00;;;;;;;;;;5091914;28;20450;-74
2022/06/06 12:28:09;;;;;;;12.57;1.90;;;;;;;;;;5092159;28;20445;-74
2022/06/06 12:30:44;;;;;;;11.80;2.07;;;;;;;;;;5092075;28;21042;-74
2022/06/06 12:33:14;;;;;;;13.20;1.93;;;;;;;;;;5092172;28;20467;-74
2022/06/06 12:35:46;;;;;;;13.10;2.50;;;;;;;;;;5092208;28;20451;-74
2022/06/06 12:38:29;;;;;;;12.93;2.10;;;;;;;;;;5091646;28;20451;-75
2022/06/06 12:41:04;;;;;;;12.90;2.40;;;;;;;;;;5091942;28;20942;-75
2022/06/06 12:43:38;;;;;;;11.90;2.30;;;;;;;;;;5091812;28;20479;-74
2022/06/06 12:46:13;;;;;;;12.20;2.43;;;;;;;;;;5091831;28;20432;-74
2022/06/06 12:48:49;;;;;;;13.70;2.20;;;;;;;;;;5091698;28;20434;-74
2022/06/06 12:51:22;;;;;;;12.10;2.00;;;;;;;;;;5091831;28;20447;-75
2022/06/06 12:54:22;;;;;;;12.17;2.20;;;;;;;;;;5091672;28;20452;-74
2022/06/06 12:56:54;;;;;;;12.97;2.57;;;;;;;;;;5092394;28;20509;-74
2022/06/06 12:59:29;;;;;;;14.20;2.63;;;;;;;;;;5092130;28;20474;-74
2022/06/06 13:02:01;;;;;;;13.97;2.60;;;;;;;;;;5091800;28;20455;-75
2022/06/06 13:04:35;;;;;;;12.77;2.20;;;;;;;;;;5091309;28;21000;-74
2022/06/06 13:07:11;;;;;;;13.83;2.10;;;;;;;;;;5091896;28;20430;-74
2022/06/06 13:10:04;;;;;;;13.23;2.10;;;;;;;;;;5093261;28;20441;-74
2022/06/06 13:12:43;;;;;;;12.40;2.13;;;;;;;;;;5094951;28;20443;-75
2022/06/06 13:15:15;;;;;;;11.87;1.97;;;;;;;;;;5095332;28;20952;-74
2022/06/06 13:17:52;;;;;;;16.10;2.30;;;;;;;;;;5095885;28;20440;-75
2022/06/06 13:20:22;;;;;;;13.90;2.40;;;;;;;;;;5095211;28;20446;-74
2022/06/06 13:23:01;;;;;;;12.70;2.30;;;;;;;;;;5094746;28;20462;-74
2022/06/06 13:25:35;;;;;;;14.13;2.03;;;;;;;;;;5095458;28;20502;-74
2022/06/06 13:28:11;;;;;;;12.67;2.33;;;;;;;;;;5095418;28;20802;-74
2022/06/06 13:30:42;;;;;;;12.47;2.40;;;;;;;;;;5094989;28;20809;-74
2022/06/06 13:33:19;;;;;;;12.50;2.23;;;;;;;;;;5095147;28;20479;-74
2022/06/06 13:35:54;;;;;;;11.80;1.80;;;;;;;;;;5094959;28;20453;-75
2022/06/06 13:38:31;;;;;;;13.43;2.63;;;;;;;;;;5095056;28;20438;-74
2022/06/06 13:41:05;;;;;;;12.40;2.27;;;;;;;;;;5094857;28;20953;-74
2022/06/06 13:57:53;;;;;;;12.60;2.40;;;;;;;;;;5150915;27;20312;-73
2022/06/06 14:00:25;;;;;;;12.73;2.57;;;;;;;;;;5150855;27;20442;-73
2022/06/06 14:03:09;;;;;;;13.00;2.37;;;;;;;;;;5150580;27;20433;-73
2022/06/06 14:05:57;;;;;;;15.10;2.10;;;;;;;;;;5150366;27;20995;-75
2022/06/06 14:08:25;;;;;;;20.67;2.80;;;;;;;;;;5150581;27;20442;-75
2022/06/06 14:11:05;;;;;;;13.50;2.50;;;;;;;;;;5150535;27;20431;-75
2022/06/06 14:13:44;;;;;;;12.80;2.60;;;;;;;;;;5150426;27;20520;-75
2022/06/06 14:16:20;;;;;;;12.60;2.20;;;;;;;;;;5150551;27;20529;-75
2022/06/06 14:18:51;;;;;;;13.30;2.77;;;;;;;;;;5150434;27;20436;-75
2022/06/06 14:21:24;;;;;;;14.60;2.70;;;;;;;;;;5150129;27;20489;-75
2022/06/06 14:23:52;;;;;;;13.73;2.73;;;;;;;;;;5150288;27;20442;-75
2022/06/06 14:26:22;;;;;;;12.70;2.50;;;;;;;;;;5150368;27;20479;-75
2022/06/06 14:29:04;;;;;;;18.10;2.83;;;;;;;;;;5150397;27;20431;-75
2022/06/06 14:31:36;;;;;;;13.57;3.23;;;;;;;;;;5149992;27;20438;-76
2022/06/06 14:34:17;;;;;;;14.80;2.97;;;;;;;;;;5149791;27;20446;-75
2022/06/06 14:36:46;;;;;;;16.43;3.90;;;;;;;;;;5148234;27;20443;-76
2022/06/06 14:39:22;;;;;;;13.07;2.87;;;;;;;;;;5142059;27;20454;-76
2022/06/06 14:41:51;;;;;;;14.30;2.80;;;;;;;;;;5149068;27;20448;-76
2022/06/06 14:44:31;;;;;;;16.77;3.10;;;;;;;;;;5145677;27;20452;-75
2022/06/06 14:47:08;;;;;;;14.30;3.00;;;;;;;;;;5156559;27;20483;-76
2022/06/06 14:49:36;;;;;;;15.37;2.90;;;;;;;;;;5149637;27;20463;-77
2022/06/06 14:52:11;;;;;;;17.13;2.73;;;;;;;;;;5166013;27;20443;-78
2022/06/06 15:06:23;;;;;;;14.20;3.00;;;;;;;;;;5088244;28;20674;-73
2022/06/06 15:08:54;;;;;;;13.67;3.07;;;;;;;;;;5088472;28;20476;-73
2022/06/06 15:11:24;;;;;;;13.90;3.00;;;;;;;;;;5088346;28;20483;-74
2022/06/06 15:13:54;;;;;;;15.53;3.30;;;;;;;;;;5075992;28;20483;-74
2022/06/06 15:16:23;;;;;;;13.37;3.30;;;;;;;;;;5087017;28;20552;-71
2022/06/06 15:18:52;;;;;;;13.90;3.00;;;;;;;;;;5086836;28;20471;-73
2022/06/06 15:21:22;;;;;;;13.83;2.87;;;;;;;;;;5083867;28;20483;-74
2022/06/06 15:23:53;;;;;;;13.67;3.20;;;;;;;;;;5083038;28;20481;-74
2022/06/06 15:26:28;;;;;;;13.97;3.00;;;;;;;;;;5082192;28;20599;-72
2022/06/06 15:28:59;;;;;;;13.63;2.87;;;;;;;;;;5085142;28;20468;-71
2022/06/06 15:31:31;;;;;;;13.70;3.10;;;;;;;;;;5087518;28;20470;-73
2022/06/06 15:34:07;;;;;;;15.07;3.03;;;;;;;;;;5088150;28;20882;-73
2022/06/06 15:36:42;;;;;;;14.60;3.23;;;;;;;;;;5088162;28;20539;-77
2022/06/06 15:39:19;;;;;;;14.90;3.20;;;;;;;;;;5074668;28;20466;-76
2022/06/06 15:41:50;;;;;;;13.30;2.67;;;;;;;;;;5081796;28;20477;-76
2022/06/06 15:44:25;;;;;;;14.03;3.00;;;;;;;;;;5083956;28;20869;-75
2022/06/06 15:46:57;;;;;;;13.70;2.40;;;;;;;;;;5080651;28;20487;-75
2022/06/06 15:49:31;;;;;;;14.60;2.87;;;;;;;;;;5081124;28;20553;-75
2022/06/06 15:52:05;;;;;;;15.60;3.20;;;;;;;;;;5075939;28;20489;-74
2022/06/06 15:54:53;;;;;;;15.90;3.40;;;;;;;;;;5066509;28;21012;-75
2022/06/06 15:57:23;;;;;;;13.93;3.23;;;;;;;;;;5064195;28;20470;-75
2022/06/06 16:00:16;;;;;;;17.73;2.70;;;;;;;;;;5066587;28;20472;-74
2022/06/06 16:02:45;;;;;;;14.00;3.00;;;;;;;;;;5067379;28;20620;-75
2022/06/06 16:05:15;;;;;;;15.00;3.10;;;;;;;;;;5065756;28;20493;-76
2022/06/06 16:07:52;;;;;;;14.03;2.80;;;;;;;;;;5053421;28;20856;-74
2022/06/06 16:10:22;;;;;;;13.00;3.20;;;;;;;;;;5054483;28;20482;-74
2022/06/06 16:12:58;;;;;;;17.60;3.17;;;;;;;;;;5053468;28;21007;-74
2022/06/06 16:15:30;;;;;;;12.20;2.40;;;;;;;;;;5050976;28;20483;-75
2022/06/06 16:18:04;;;;;;;14.20;3.23;;;;;;;;;;5058805;28;20503;-75
2022/06/06 16:20:33;;;;;;;19.63;3.10;;;;;;;;;;5058242;28;21046;-75
2022/06/06 16:23:04;;;;;;;15.10;2.70;;;;;;;;;;5073937;28;21083;-75
2022/06/06 16:25:35;;;;;;;14.50;2.37;;;;;;;;;;5059309;28;20997;-75
2022/06/06 16:28:07;;;;;;;13.10;2.60;;;;;;;;;;5054541;28;20467;-74
2022/06/06 16:30:36;;;;;;;17.60;3.43;;;;;;;;;;5059136;28;20471;-75
2022/06/06 16:33:21;;;;;;;13.40;2.80;;;;;;;;;;5062414;28;20484;-75
2022/06/06 16:35:51;;;;;;;14.63;2.60;;;;;;;;;;5057364;28;20496;-76
2022/06/06 16:38:23;;;;;;;14.00;2.43;;;;;;;;;;5057162;28;20478;-75
2022/06/06 16:40:55;;;;;;;14.27;2.93;;;;;;;;;;5058784;28;20559;-75
2022/06/06 16:49:12;;;;;;;13.47;2.50;;;;;;;;;;5061457;28;20565;-75
2022/06/06 16:51:44;;;;;;;14.17;2.80;;;;;;;;;;5053186;28;20480;-75
2022/06/06 16:54:28;;;;;;;14.10;2.53;;;;;;;;;;5053181;28;20498;-74
2022/06/06 16:57:04;;;;;;;15.00;2.57;;;;;;;;;;5053396;28;20479;-73
2022/06/06 16:59:40;;;;;;;14.57;2.77;;;;;;;;;;5052772;28;20522;-75
2022/06/06 17:02:13;;;;;;;12.20;2.13;;;;;;;;;;5052716;28;20996;-75
2022/06/06 17:04:45;;;;;;;19.83;2.37;;;;;;;;;;5053206;28;20484;-75
2022/06/06 17:10:09;;;;;;;13.23;2.60;;;;;;;;;;5060894;28;20843;-76
2022/06/06 17:12:38;;;;;;;13.90;2.70;;;;;;;;;;5060468;28;20471;-76
2022/06/06 17:15:20;;;;;;;13.47;2.73;;;;;;;;;;5061135;28;20490;-76
2022/06/06 17:17:49;;;;;;;13.30;2.50;;;;;;;;;;5061441;28;21038;-73
2022/06/06 17:20:26;;;;;;;14.50;2.90;;;;;;;;;;5060907;28;20840;-78
2022/06/06 17:22:57;;;;;;;14.90;2.77;;;;;;;;;;5059696;28;20566;-74
2022/06/06 17:25:37;;;;;;;14.53;2.87;;;;;;;;;;5049915;28;20521;-73
2022/06/06 17:28:21;;;;;;;15.67;3.60;;;;;;;;;;5056453;28;20471;-74
2022/06/06 17:30:51;;;;;;;13.37;2.93;;;;;;;;;;5058016;28;20972;-75
2022/06/06 17:33:24;;;;;;;13.87;2.73;;;;;;;;;;5064756;28;20485;-74
2022/06/06 17:35:57;;;;;;;13.90;3.67;;;;;;;;;;5067322;28;20572;-73
2022/06/06 17:38:39;;;;;;;12.97;2.57;;;;;;;;;;5072010;28;20480;-76
2022/06/06 17:41:17;;;;;;;13.20;2.77;;;;;;;;;;5072165;28;20883;-75
2022/06/06 17:43:58;;;;;;;14.53;3.10;;;;;;;;;;5054201;28;20519;-77
2022/06/06 17:46:28;;;;;;;13.43;3.20;;;;;;;;;;5066094;28;20488;-76
2022/06/06 17:49:03;;;;;;;18.20;3.20;;;;;;;;;;5072257;28;20464;-77
2022/06/06 17:51:42;;;;;;;15.83;3.17;;;;;;;;;;5072396;28;20463;-77
2022/06/06 17:54:17;;;;;;;13.13;2.77;;;;;;;;;;5069470;28;20525;-83
2022/06/06 17:56:52;;;;;;;14.43;3.27;;;;;;;;;;5055144;28;20547;-83
2022/06/06 17:59:33;;;;;;;12.93;2.70;;;;;;;;;;5051456;28;20887;-84
2022/06/06 18:02:19;;;;;;;14.67;3.13;;;;;;;;;;5052349;28;20468;-81
2022/06/06 18:05:00;;;;;;;12.93;2.70;;;;;;;;;;5057181;28;20490;-74
2022/06/06 18:07:34;;;;;;;15.00;3.57;;;;;;;;;;5051601;28;20474;-74
2022/06/06 18:10:02;;;;;;;12.90;2.80;;;;;;;;;;5050780;28;20476;-74
2022/06/06 18:12:55;;;;;;;13.00;2.40;;;;;;;;;;5051665;28;20844;-78
2022/06/06 18:15:35;;;;;;;15.30;3.30;;;;;;;;;;5050539;28;20491;-73
2022/06/06 18:18:05;;;;;;;14.10;3.10;;;;;;;;;;5056014;28;20483;-75
2022/06/06 18:20:35;;;;;;;13.90;3.40;;;;;;;;;;5051358;28;20471;-74
2022/06/06 18:23:06;;;;;;;14.03;2.90;;;;;;;;;;5060632;28;21138;-73
2022/06/06 18:25:35;;;;;;;14.40;3.00;;;;;;;;;;5059044;28;20533;-72
2022/06/06 18:28:07;;;;;;;16.10;3.80;;;;;;;;;;5059971;28;20467;-74
2022/06/06 18:30:35;;;;;;;14.53;3.70;;;;;;;;;;5067094;28;20471;-73
2022/06/06 18:33:04;;;;;;;13.37;2.93;;;;;;;;;;5071070;28;20482;-73
2022/06/06 18:35:34;;;;;;;14.77;3.30;;;;;;;;;;5071154;28;20497;-72
2022/06/06 18:38:03;;;;;;;17.00;3.40;;;;;;;;;;5071010;28;20514;-73
2022/06/06 18:40:36;;;;;;;14.40;3.40;;;;;;;;;;5071160;28;20467;-74
2022/06/06 18:43:21;;;;;;;15.63;3.60;;;;;;;;;;5060741;28;20935;-74
2022/06/06 18:45:50;;;;;;;17.67;4.13;;;;;;;;;;5048426;28;20547;-75
2022/06/06 18:48:19;;;;;;;16.13;3.23;;;;;;;;;;5050041;28;20475;-74
2022/06/06 18:50:52;;;;;;;14.67;4.93;;;;;;;;;;5054617;28;20561;-74